sensor_id;sensor_type;location;lat;lon;timestamp;temperature;humidity
5138;DHT22;53959;53.626;11.410;2022-07-09T00:00:52;14.90;99.90
5138;DHT22;53959;53.626;11.410;2022-07-09T00:03:17;14.80;99.90
5138;DHT22;53959;53.626;11.410;2022-07-09T00:05:43;14.90;99.90
5138;DHT22;53959;53.626;11.410;2022-07-09T00:08:08;15.00;99.90
5138;DHT22;53959;53.626;11.410;2022-07-09T00:10:34;15.00;99.90
5138;DHT22;53959;53.626;11.410;2022-07-09T00:12:59;14.90;99.90
5138;DHT22;53959;53.626;11.410;2022-07-09T00:15:25;14.90;99.90
5138;DHT22;53959;53.626;11.410;2022-07-09T00:17:51;15.00;99.90
5138;DHT22;53959;53.626;11.410;2022-07-09T00:20:16;15.00;99.90
5138;DHT22;53959;53.626;11.410;2022-07-09T00:22:42;15.00;99.90
5138;DHT22;53959;53.626;11.410;2022-07-09T00:25:08;15.00;99.90
5138;DHT22;53959;53.626;11.410;2022-07-09T00:27:33;15.00;99.90
5138;DHT22;53959;53.626;11.410;2022-07-09T00:29:59;15.00;99.90
5138;DHT22;53959;53.626;11.410;2022-07-09T00:32:24;14.80;99.90
5138;DHT22;53959;53.626;11.410;2022-07-09T00:34:50;14.90;99.90
5138;DHT22;53959;53.626;11.410;2022-07-09T00:37:15;15.00;99.90
5138;DHT22;53959;53.626;11.410;2022-07-09T00:39:41;14.90;99.90
5138;DHT22;53959;53.626;11.410;2022-07-09T00:42:08;15.00;99.90
5138;DHT22;53959;53.626;11.410;2022-07-09T00:44:34;14.90;99.90
5138;DHT22;53959;53.626;11.410;2022-07-09T00:47:00;14.90;99.90
5138;DHT22;53959;53.626;11.410;2022-07-09T00:49:28;15.00;99.90
5138;DHT22;53959;53.626;11.410;2022-07-09T00:51:55;15.10;99.90
5138;DHT22;53959;53.626;11.410;2022-07-09T00:54:21;15.00;99.90
5138;DHT22;53959;53.626;11.410;2022-07-09T00:56:47;15.00;99.90
5138;DHT22;53959;53.626;11.410;2022-07-09T00:59:13;15.00;99.90
5138;DHT22;53959;53.626;11.410;2022-07-09T01:01:40;15.00;99.90
5138;DHT22;53959;53.626;11.410;2022-07-09T01:04:06;15.00;99.90
5138;DHT22;53959;53.626;11.410;2022-07-09T01:06:32;15.00;99.90
5138;DHT22;53959;53.626;11.410;2022-07-09T01:09:01;15.00;99.90
5138;DHT22;53959;53.626;11.410;2022-07-09T01:11:27;15.00;99.90
5138;DHT22;53959;53.626;11.410;2022-07-09T01:13:53;15.00;99.90
5138;DHT22;53959;53.626;11.410;2022-07-09T01:16:18;15.10;99.90
5138;DHT22;53959;53.626;11.410;2022-07-09T01:18:46;15.10;99.90
5138;DHT22;53959;53.626;11.410;2022-07-09T01:21:15;15.10;99.90
5138;DHT22;53959;53.626;11.410;2022-07-09T01:23:41;15.00;99.90
5138;DHT22;53959;53.626;11.410;2022-07-09T01:26:07;15.10;99.90
5138;DHT22;53959;53.626;11.410;2022-07-09T01:28:33;15.10;99.90
5138;DHT22;53959;53.626;11.410;2022-07-09T01:30:58;15.10;99.90
5138;DHT22;53959;53.626;11.410;2022-07-09T01:33:25;15.00;99.90
5138;DHT22;53959;53.626;11.410;2022-07-09T01:35:51;15.10;99.90
5138;DHT22;53959;53.626;11.410;2022-07-09T01:38:16;15.10;99.90
5138;DHT22;53959;53.626;11.410;2022-07-09T01:40:42;15.00;99.90
5138;DHT22;53959;53.626;11.410;2022-07-09T01:43:08;15.20;99.90
5138;DHT22;53959;53.626;11.410;2022-07-09T01:45:33;15.20;99.90
5138;DHT22;53959;53.626;11.410;2022-07-09T01:47:59;15.10;99.90
5138;DHT22;53959;53.626;11.410;2022-07-09T01:50:24;15.10;99.90
5138;DHT22;53959;53.626;11.410;2022-07-09T01:52:50;15.10;99.90
5138;DHT22;53959;53.626;11.410;2022-07-09T01:55:16;15.10;99.90
5138;DHT22;53959;53.626;11.410;2022-07-09T01:57:41;15.10;99.90
5138;DHT22;53959;53.626;11.410;2022-07-09T02:00:07;15.10;99.90
5138;DHT22;53959;53.626;11.410;2022-07-09T02:02:33;15.10;99.90
5138;DHT22;53959;53.626;11.410;2022-07-09T02:04:59;15.10;99.90
5138;DHT22;53959;53.626;11.410;2022-07-09T02:07:24;15.00;99.90
5138;DHT22;53959;53.626;11.410;2022-07-09T02:09:50;15.10;99.90
5138;DHT22;53959;53.626;11.410;2022-07-09T02:12:16;15.10;99.90
5138;DHT22;53959;53.626;11.410;2022-07-09T02:14:42;15.00;99.90
5138;DHT22;53959;53.626;11.410;2022-07-09T02:17:08;15.00;99.90
5138;DHT22;53959;53.626;11.410;2022-07-09T02:19:33;15.00;99.90
5138;DHT22;53959;53.626;11.410;2022-07-09T02:21:59;14.90;99.90
5138;DHT22;53959;53.626;11.410;2022-07-09T02:24:24;15.00;99.90
5138;DHT22;53959;53.626;11.410;2022-07-09T02:26:50;15.10;99.90
5138;DHT22;53959;53.626;11.410;2022-07-09T02:29:16;15.00;99.90
5138;DHT22;53959;53.626;11.410;2022-07-09T02:31:42;15.00;99.90
5138;DHT22;53959;53.626;11.410;2022-07-09T02:34:07;15.00;99.90
5138;DHT22;53959;53.626;11.410;2022-07-09T02:36:33;15.00;99.90
5138;DHT22;53959;53.626;11.410;2022-07-09T02:38:58;15.00;99.90
5138;DHT22;53959;53.626;11.410;2022-07-09T02:41:24;15.00;99.90
5138;DHT22;53959;53.626;11.410;2022-07-09T02:43:49;15.10;99.90
5138;DHT22;53959;53.626;11.410;2022-07-09T02:46:15;15.10;99.90
5138;DHT22;53959;53.626;11.410;2022-07-09T02:48:41;15.10;99.90
5138;DHT22;53959;53.626;11.410;2022-07-09T02:51:06;15.00;99.90
5138;DHT22;53959;53.626;11.410;2022-07-09T02:53:32;15.00;99.90
5138;DHT22;53959;53.626;11.410;2022-07-09T02:55:57;15.10;99.90
5138;DHT22;53959;53.626;11.410;2022-07-09T02:58:23;15.00;99.90
5138;DHT22;53959;53.626;11.410;2022-07-09T03:00:48;15.10;99.90
5138;DHT22;53959;53.626;11.410;2022-07-09T03:03:14;15.00;99.90
5138;DHT22;53959;53.626;11.410;2022-07-09T03:05:40;15.10;99.90
5138;DHT22;53959;53.626;11.410;2022-07-09T03:08:05;15.10;99.90
5138;DHT22;53959;53.626;11.410;2022-07-09T03:10:33;15.10;99.90
5138;DHT22;53959;53.626;11.410;2022-07-09T03:13:00;15.00;99.90
5138;DHT22;53959;53.626;11.410;2022-07-09T03:15:25;15.10;99.90
5138;DHT22;53959;53.626;11.410;2022-07-09T03:17:51;15.10;99.90
5138;DHT22;53959;53.626;11.410;2022-07-09T03:20:16;14.90;99.90
5138;DHT22;53959;53.626;11.410;2022-07-09T03:22:42;14.80;99.90
5138;DHT22;53959;53.626;11.410;2022-07-09T03:25:08;14.90;99.90
5138;DHT22;53959;53.626;11.410;2022-07-09T03:27:34;14.90;99.90
5138;DHT22;53959;53.626;11.410;2022-07-09T03:30:00;14.80;99.90
5138;DHT22;53959;53.626;11.410;2022-07-09T03:32:26;14.80;99.90
5138;DHT22;53959;53.626;11.410;2022-07-09T03:34:52;14.80;99.90
5138;DHT22;53959;53.626;11.410;2022-07-09T03:37:18;14.70;99.90
5138;DHT22;53959;53.626;11.410;2022-07-09T03:39:44;14.70;99.90
5138;DHT22;53959;53.626;11.410;2022-07-09T03:42:10;14.80;99.90
5138;DHT22;53959;53.626;11.410;2022-07-09T03:44:36;14.80;99.90
5138;DHT22;53959;53.626;11.410;2022-07-09T03:47:02;14.80;99.90
5138;DHT22;53959;53.626;11.410;2022-07-09T03:49:28;14.80;99.90
5138;DHT22;53959;53.626;11.410;2022-07-09T03:51:54;14.80;99.90
5138;DHT22;53959;53.626;11.410;2022-07-09T03:54:20;14.80;99.90
5138;DHT22;53959;53.626;11.410;2022-07-09T03:56:45;14.70;99.90
5138;DHT22;53959;53.626;11.410;2022-07-09T03:59:11;14.70;99.90
5138;DHT22;53959;53.626;11.410;2022-07-09T04:01:36;14.80;99.90
5138;DHT22;53959;53.626;11.410;2022-07-09T04:04:03;14.80;99.90
5138;DHT22;53959;53.626;11.410;2022-07-09T04:06:28;14.70;99.90
5138;DHT22;53959;53.626;11.410;2022-07-09T04:08:55;14.70;99.90
5138;DHT22;53959;53.626;11.410;2022-07-09T04:11:20;14.70;99.90
5138;DHT22;53959;53.626;11.410;2022-07-09T04:13:46;14.80;99.90
5138;DHT22;53959;53.626;11.410;2022-07-09T04:16:11;14.80;99.90
5138;DHT22;53959;53.626;11.410;2022-07-09T04:18:37;14.60;99.90
5138;DHT22;53959;53.626;11.410;2022-07-09T04:21:03;14.70;99.90
5138;DHT22;53959;53.626;11.410;2022-07-09T04:23:28;14.80;99.90
5138;DHT22;53959;53.626;11.410;2022-07-09T04:25:54;14.70;99.90
5138;DHT22;53959;53.626;11.410;2022-07-09T04:28:19;14.80;99.90
5138;DHT22;53959;53.626;11.410;2022-07-09T04:30:46;14.80;99.90
5138;DHT22;53959;53.626;11.410;2022-07-09T04:33:11;14.70;99.90
5138;DHT22;53959;53.626;11.410;2022-07-09T04:35:37;14.70;99.90
5138;DHT22;53959;53.626;11.410;2022-07-09T04:38:03;14.80;99.90
5138;DHT22;53959;53.626;11.410;2022-07-09T04:40:29;14.70;99.90
5138;DHT22;53959;53.626;11.410;2022-07-09T04:42:55;14.70;99.90
5138;DHT22;53959;53.626;11.410;2022-07-09T04:45:21;14.80;99.90
5138;DHT22;53959;53.626;11.410;2022-07-09T04:47:46;14.60;99.90
5138;DHT22;53959;53.626;11.410;2022-07-09T04:50:12;14.70;99.90
5138;DHT22;53959;53.626;11.410;2022-07-09T04:52:38;14.80;99.90
5138;DHT22;53959;53.626;11.410;2022-07-09T04:55:05;14.90;99.90
5138;DHT22;53959;53.626;11.410;2022-07-09T04:57:31;14.80;99.90
5138;DHT22;53959;53.626;11.410;2022-07-09T05:00:00;14.90;99.90
5138;DHT22;53959;53.626;11.410;2022-07-09T05:02:26;14.90;99.90
5138;DHT22;53959;53.626;11.410;2022-07-09T05:04:52;15.00;99.90
5138;DHT22;53959;53.626;11.410;2022-07-09T05:07:17;14.80;99.90
5138;DHT22;53959;53.626;11.410;2022-07-09T05:09:43;14.80;99.90
5138;DHT22;53959;53.626;11.410;2022-07-09T05:12:08;15.00;99.90
5138;DHT22;53959;53.626;11.410;2022-07-09T05:14:36;14.90;99.90
5138;DHT22;53959;53.626;11.410;2022-07-09T05:17:02;15.00;99.90
5138;DHT22;53959;53.626;11.410;2022-07-09T05:19:28;15.00;99.90
5138;DHT22;53959;53.626;11.410;2022-07-09T05:21:53;14.90;99.90
5138;DHT22;53959;53.626;11.410;2022-07-09T05:24:19;14.90;99.90
5138;DHT22;53959;53.626;11.410;2022-07-09T05:26:44;14.90;99.90
5138;DHT22;53959;53.626;11.410;2022-07-09T05:29:10;14.90;99.90
5138;DHT22;53959;53.626;11.410;2022-07-09T05:31:35;14.90;99.90
5138;DHT22;53959;53.626;11.410;2022-07-09T05:34:02;14.90;99.90
5138;DHT22;53959;53.626;11.410;2022-07-09T05:36:27;14.90;99.90
5138;DHT22;53959;53.626;11.410;2022-07-09T05:38:56;14.90;99.90
5138;DHT22;53959;53.626;11.410;2022-07-09T05:41:22;14.90;99.90
5138;DHT22;53959;53.626;11.410;2022-07-09T05:43:48;14.90;99.90
5138;DHT22;53959;53.626;11.410;2022-07-09T05:46:13;15.00;99.90
5138;DHT22;53959;53.626;11.410;2022-07-09T05:48:39;15.00;99.90
5138;DHT22;53959;53.626;11.410;2022-07-09T05:51:04;15.00;99.90
5138;DHT22;53959;53.626;11.410;2022-07-09T05:53:30;15.00;99.90
5138;DHT22;53959;53.626;11.410;2022-07-09T05:55:56;15.00;99.90
5138;DHT22;53959;53.626;11.410;2022-07-09T05:58:21;15.00;99.90
5138;DHT22;53959;53.626;11.410;2022-07-09T06:00:47;15.00;99.90
5138;DHT22;53959;53.626;11.410;2022-07-09T06:03:12;15.10;99.90
5138;DHT22;53959;53.626;11.410;2022-07-09T06:05:38;15.10;99.90
5138;DHT22;53959;53.626;11.410;2022-07-09T06:08:03;15.20;99.90
5138;DHT22;53959;53.626;11.410;2022-07-09T06:10:29;15.30;99.90
5138;DHT22;53959;53.626;11.410;2022-07-09T06:12:55;15.20;99.90
5138;DHT22;53959;53.626;11.410;2022-07-09T06:15:20;15.20;99.90
5138;DHT22;53959;53.626;11.410;2022-07-09T06:17:46;15.30;99.90
5138;DHT22;53959;53.626;11.410;2022-07-09T06:20:11;15.40;99.90
5138;DHT22;53959;53.626;11.410;2022-07-09T06:22:37;15.50;99.90
5138;DHT22;53959;53.626;11.410;2022-07-09T06:25:05;15.50;99.90
5138;DHT22;53959;53.626;11.410;2022-07-09T06:27:30;15.60;99.90
5138;DHT22;53959;53.626;11.410;2022-07-09T06:29:56;15.60;99.90
5138;DHT22;53959;53.626;11.410;2022-07-09T06:32:21;15.70;99.90
5138;DHT22;53959;53.626;11.410;2022-07-09T06:34:47;15.80;99.90
5138;DHT22;53959;53.626;11.410;2022-07-09T06:37:12;15.80;99.90
5138;DHT22;53959;53.626;11.410;2022-07-09T06:39:38;15.80;99.90
5138;DHT22;53959;53.626;11.410;2022-07-09T06:42:15;15.90;99.90
5138;DHT22;53959;53.626;11.410;2022-07-09T06:44:41;16.10;99.90
5138;DHT22;53959;53.626;11.410;2022-07-09T06:47:07;15.90;99.90
5138;DHT22;53959;53.626;11.410;2022-07-09T06:49:33;15.90;99.90
5138;DHT22;53959;53.626;11.410;2022-07-09T06:51:59;16.10;99.90
5138;DHT22;53959;53.626;11.410;2022-07-09T06:54:25;16.10;99.90
5138;DHT22;53959;53.626;11.410;2022-07-09T06:56:50;16.20;99.90
5138;DHT22;53959;53.626;11.410;2022-07-09T06:59:16;16.50;99.90
5138;DHT22;53959;53.626;11.410;2022-07-09T07:01:44;16.50;99.90
5138;DHT22;53959;53.626;11.410;2022-07-09T07:04:09;16.50;99.90
5138;DHT22;53959;53.626;11.410;2022-07-09T07:06:37;16.40;99.90
5138;DHT22;53959;53.626;11.410;2022-07-09T07:09:03;16.50;99.90
5138;DHT22;53959;53.626;11.410;2022-07-09T07:11:28;16.60;99.90
5138;DHT22;53959;53.626;11.410;2022-07-09T07:13:54;16.50;99.90
5138;DHT22;53959;53.626;11.410;2022-07-09T07:16:19;16.70;99.90
5138;DHT22;53959;53.626;11.410;2022-07-09T07:18:45;16.70;99.90
5138;DHT22;53959;53.626;11.410;2022-07-09T07:21:11;16.90;99.90
5138;DHT22;53959;53.626;11.410;2022-07-09T07:23:36;17.10;99.90
5138;DHT22;53959;53.626;11.410;2022-07-09T07:26:02;16.90;99.90
5138;DHT22;53959;53.626;11.410;2022-07-09T07:28:28;16.90;99.90
5138;DHT22;53959;53.626;11.410;2022-07-09T07:30:53;16.90;99.90
5138;DHT22;53959;53.626;11.410;2022-07-09T07:33:19;16.90;99.90
5138;DHT22;53959;53.626;11.410;2022-07-09T07:35:45;17.00;99.90
5138;DHT22;53959;53.626;11.410;2022-07-09T07:38:10;17.10;99.90
5138;DHT22;53959;53.626;11.410;2022-07-09T07:40:36;17.20;99.90
5138;DHT22;53959;53.626;11.410;2022-07-09T07:43:02;17.50;99.90
5138;DHT22;53959;53.626;11.410;2022-07-09T07:45:28;17.50;99.90
5138;DHT22;53959;53.626;11.410;2022-07-09T07:47:54;17.40;99.90
5138;DHT22;53959;53.626;11.410;2022-07-09T07:50:20;17.40;99.90
5138;DHT22;53959;53.626;11.410;2022-07-09T07:52:46;17.50;99.90
5138;DHT22;53959;53.626;11.410;2022-07-09T07:55:11;17.50;99.90
5138;DHT22;53959;53.626;11.410;2022-07-09T07:57:37;17.50;99.90
5138;DHT22;53959;53.626;11.410;2022-07-09T08:00:04;17.80;99.90
5138;DHT22;53959;53.626;11.410;2022-07-09T08:02:30;17.80;99.90
5138;DHT22;53959;53.626;11.410;2022-07-09T08:04:56;17.80;99.90
5138;DHT22;53959;53.626;11.410;2022-07-09T08:07:22;18.00;99.90
5138;DHT22;53959;53.626;11.410;2022-07-09T08:09:47;17.90;99.90
5138;DHT22;53959;53.626;11.410;2022-07-09T08:12:12;17.80;99.90
5138;DHT22;53959;53.626;11.410;2022-07-09T08:14:38;17.60;99.90
5138;DHT22;53959;53.626;11.410;2022-07-09T08:17:04;17.20;99.90
5138;DHT22;53959;53.626;11.410;2022-07-09T08:19:29;16.90;99.90
5138;DHT22;53959;53.626;11.410;2022-07-09T08:21:55;16.80;99.90
5138;DHT22;53959;53.626;11.410;2022-07-09T08:24:21;17.00;99.90
5138;DHT22;53959;53.626;11.410;2022-07-09T08:26:47;16.80;99.90
5138;DHT22;53959;53.626;11.410;2022-07-09T08:29:12;16.70;99.90
5138;DHT22;53959;53.626;11.410;2022-07-09T08:31:38;16.60;99.90
5138;DHT22;53959;53.626;11.410;2022-07-09T08:34:03;16.40;99.90
5138;DHT22;53959;53.626;11.410;2022-07-09T08:36:29;16.60;99.90
5138;DHT22;53959;53.626;11.410;2022-07-09T08:38:54;16.70;99.90
5138;DHT22;53959;53.626;11.410;2022-07-09T08:41:22;16.60;99.90
5138;DHT22;53959;53.626;11.410;2022-07-09T08:43:49;16.80;99.90
5138;DHT22;53959;53.626;11.410;2022-07-09T08:46:17;17.00;99.90
5138;DHT22;53959;53.626;11.410;2022-07-09T08:48:44;17.00;99.90
5138;DHT22;53959;53.626;11.410;2022-07-09T08:51:10;17.30;99.90
5138;DHT22;53959;53.626;11.410;2022-07-09T08:53:40;17.60;99.90
5138;DHT22;53959;53.626;11.410;2022-07-09T08:56:06;17.80;99.90
5138;DHT22;53959;53.626;11.410;2022-07-09T08:58:32;17.90;99.90
5138;DHT22;53959;53.626;11.410;2022-07-09T09:00:58;17.80;99.90
5138;DHT22;53959;53.626;11.410;2022-07-09T09:03:24;18.10;99.90
5138;DHT22;53959;53.626;11.410;2022-07-09T09:06:06;18.70;99.90
5138;DHT22;53959;53.626;11.410;2022-07-09T09:08:40;18.70;99.90
5138;DHT22;53959;53.626;11.410;2022-07-09T09:11:20;19.10;99.90
5138;DHT22;53959;53.626;11.410;2022-07-09T09:13:48;19.00;99.90
5138;DHT22;53959;53.626;11.410;2022-07-09T09:16:15;19.50;99.90
5138;DHT22;53959;53.626;11.410;2022-07-09T09:18:50;19.60;99.90
5138;DHT22;53959;53.626;11.410;2022-07-09T09:21:19;19.10;99.90
5138;DHT22;53959;53.626;11.410;2022-07-09T09:23:50;18.70;99.90
5138;DHT22;53959;53.626;11.410;2022-07-09T09:26:20;18.60;99.90
5138;DHT22;53959;53.626;11.410;2022-07-09T09:28:51;18.70;99.90
5138;DHT22;53959;53.626;11.410;2022-07-09T09:33:49;18.80;99.90
5138;DHT22;53959;53.626;11.410;2022-07-09T09:36:32;19.10;99.90
5138;DHT22;53959;53.626;11.410;2022-07-09T09:39:21;18.80;99.90
5138;DHT22;53959;53.626;11.410;2022-07-09T09:44:27;18.10;99.90
5138;DHT22;53959;53.626;11.410;2022-07-09T09:46:56;18.10;99.90
5138;DHT22;53959;53.626;11.410;2022-07-09T09:49:22;17.90;99.90
5138;DHT22;53959;53.626;11.410;2022-07-09T09:51:57;18.60;99.90
5138;DHT22;53959;53.626;11.410;2022-07-09T09:54:25;19.20;99.90
5138;DHT22;53959;53.626;11.410;2022-07-09T09:56:52;19.90;99.90
5138;DHT22;53959;53.626;11.410;2022-07-09T09:59:19;20.40;99.90
5138;DHT22;53959;53.626;11.410;2022-07-09T10:01:45;20.60;99.90
5138;DHT22;53959;53.626;11.410;2022-07-09T10:04:12;21.60;99.90
5138;DHT22;53959;53.626;11.410;2022-07-09T10:06:39;22.10;99.90
5138;DHT22;53959;53.626;11.410;2022-07-09T10:09:06;21.70;37.70
5138;DHT22;53959;53.626;11.410;2022-07-09T10:14:14;21.10;99.90
5138;DHT22;53959;53.626;11.410;2022-07-09T10:16:40;20.40;99.90
5138;DHT22;53959;53.626;11.410;2022-07-09T10:19:06;20.30;1.00
5138;DHT22;53959;53.626;11.410;2022-07-09T10:21:39;20.30;99.90
5138;DHT22;53959;53.626;11.410;2022-07-09T10:24:05;20.40;14.30
5138;DHT22;53959;53.626;11.410;2022-07-09T10:27:04;21.10;1.00
5138;DHT22;53959;53.626;11.410;2022-07-09T10:29:31;20.80;1.00
5138;DHT22;53959;53.626;11.410;2022-07-09T10:31:57;20.30;99.90
5138;DHT22;53959;53.626;11.410;2022-07-09T10:34:42;19.70;1.00
5138;DHT22;53959;53.626;11.410;2022-07-09T10:37:09;19.40;1.00
5138;DHT22;53959;53.626;11.410;2022-07-09T10:39:34;19.70;1.00
5138;DHT22;53959;53.626;11.410;2022-07-09T10:42:16;19.80;99.90
5138;DHT22;53959;53.626;11.410;2022-07-09T10:44:42;20.00;1.00
5138;DHT22;53959;53.626;11.410;2022-07-09T10:47:08;20.00;1.00
5138;DHT22;53959;53.626;11.410;2022-07-09T10:49:34;20.80;99.90
5138;DHT22;53959;53.626;11.410;2022-07-09T10:52:00;21.40;1.00
5138;DHT22;53959;53.626;11.410;2022-07-09T10:54:26;21.20;99.90
5138;DHT22;53959;53.626;11.410;2022-07-09T10:56:55;21.20;99.90
5138;DHT22;53959;53.626;11.410;2022-07-09T10:59:23;21.20;99.90
5138;DHT22;53959;53.626;11.410;2022-07-09T11:01:49;20.20;99.90
5138;DHT22;53959;53.626;11.410;2022-07-09T11:04:29;20.80;1.00
5138;DHT22;53959;53.626;11.410;2022-07-09T11:06:55;21.20;1.00
5138;DHT22;53959;53.626;11.410;2022-07-09T11:09:20;21.70;1.00
5138;DHT22;53959;53.626;11.410;2022-07-09T11:11:46;21.70;99.90
5138;DHT22;53959;53.626;11.410;2022-07-09T11:14:13;21.90;1.00
5138;DHT22;53959;53.626;11.410;2022-07-09T11:16:39;22.10;1.00
5138;DHT22;53959;53.626;11.410;2022-07-09T11:19:16;22.20;99.90
5138;DHT22;53959;53.626;11.410;2022-07-09T11:21:42;22.30;1.00
5138;DHT22;53959;53.626;11.410;2022-07-09T11:24:14;22.30;1.00
5138;DHT22;53959;53.626;11.410;2022-07-09T11:26:40;22.60;1.00
5138;DHT22;53959;53.626;11.410;2022-07-09T11:29:10;22.70;99.90
5138;DHT22;53959;53.626;11.410;2022-07-09T11:31:36;23.00;99.90
5138;DHT22;53959;53.626;11.410;2022-07-09T11:34:03;23.20;99.90
5138;DHT22;53959;53.626;11.410;2022-07-09T11:36:39;23.50;99.90
5138;DHT22;53959;53.626;11.410;2022-07-09T11:39:05;23.50;99.90
5138;DHT22;53959;53.626;11.410;2022-07-09T11:41:44;23.50;99.90
5138;DHT22;53959;53.626;11.410;2022-07-09T11:44:10;23.30;99.90
5138;DHT22;53959;53.626;11.410;2022-07-09T11:46:39;24.10;99.90
5138;DHT22;53959;53.626;11.410;2022-07-09T11:49:14;24.00;99.90
5138;DHT22;53959;53.626;11.410;2022-07-09T11:51:41;24.10;58.80
5138;DHT22;53959;53.626;11.410;2022-07-09T11:54:07;23.80;40.50
5138;DHT22;53959;53.626;11.410;2022-07-09T11:56:45;23.60;35.30
5138;DHT22;53959;53.626;11.410;2022-07-09T11:59:13;23.80;18.10
5138;DHT22;53959;53.626;11.410;2022-07-09T12:01:39;24.20;44.40
5138;DHT22;53959;53.626;11.410;2022-07-09T12:04:05;23.90;4.30
5138;DHT22;53959;53.626;11.410;2022-07-09T12:06:31;22.90;49.30
5138;DHT22;53959;53.626;11.410;2022-07-09T12:09:03;22.30;99.90
5138;DHT22;53959;53.626;11.410;2022-07-09T12:11:30;22.40;99.90
5138;DHT22;53959;53.626;11.410;2022-07-09T12:13:56;22.70;99.90
5138;DHT22;53959;53.626;11.410;2022-07-09T12:16:23;22.00;99.90
5138;DHT22;53959;53.626;11.410;2022-07-09T12:18:49;22.00;99.90
5138;DHT22;53959;53.626;11.410;2022-07-09T12:21:15;21.50;99.90
5138;DHT22;53959;53.626;11.410;2022-07-09T12:23:40;20.60;1.00
5138;DHT22;53959;53.626;11.410;2022-07-09T12:26:06;20.30;1.00
5138;DHT22;53959;53.626;11.410;2022-07-09T12:28:32;19.60;1.00
5138;DHT22;53959;53.626;11.410;2022-07-09T12:30:57;20.00;1.00
5138;DHT22;53959;53.626;11.410;2022-07-09T12:33:23;19.80;99.90
5138;DHT22;53959;53.626;11.410;2022-07-09T12:35:49;20.20;99.90
5138;DHT22;53959;53.626;11.410;2022-07-09T12:38:14;20.40;99.90
5138;DHT22;53959;53.626;11.410;2022-07-09T12:40:40;20.70;1.00
5138;DHT22;53959;53.626;11.410;2022-07-09T12:43:05;20.70;99.90
5138;DHT22;53959;53.626;11.410;2022-07-09T12:45:31;20.30;99.90
5138;DHT22;53959;53.626;11.410;2022-07-09T12:47:56;21.10;1.00
5138;DHT22;53959;53.626;11.410;2022-07-09T12:50:22;21.90;99.90
5138;DHT22;53959;53.626;11.410;2022-07-09T12:52:48;21.80;99.90
5138;DHT22;53959;53.626;11.410;2022-07-09T12:55:13;22.80;1.00
5138;DHT22;53959;53.626;11.410;2022-07-09T12:57:39;22.10;1.00
5138;DHT22;53959;53.626;11.410;2022-07-09T13:00:05;22.10;99.90
5138;DHT22;53959;53.626;11.410;2022-07-09T13:02:31;22.10;1.00
5138;DHT22;53959;53.626;11.410;2022-07-09T13:04:57;22.50;99.90
5138;DHT22;53959;53.626;11.410;2022-07-09T13:07:22;23.20;97.60
5138;DHT22;53959;53.626;11.410;2022-07-09T13:09:48;23.90;1.00
5138;DHT22;53959;53.626;11.410;2022-07-09T13:12:13;24.00;1.00
5138;DHT22;53959;53.626;11.410;2022-07-09T13:14:39;24.10;1.00
5138;DHT22;53959;53.626;11.410;2022-07-09T13:17:05;24.40;1.00
5138;DHT22;53959;53.626;11.410;2022-07-09T13:19:30;24.10;1.00
5138;DHT22;53959;53.626;11.410;2022-07-09T13:21:56;22.70;1.00
5138;DHT22;53959;53.626;11.410;2022-07-09T13:24:21;23.00;1.00
5138;DHT22;53959;53.626;11.410;2022-07-09T13:26:47;23.60;1.00
5138;DHT22;53959;53.626;11.410;2022-07-09T13:29:12;23.50;1.00
5138;DHT22;53959;53.626;11.410;2022-07-09T13:31:38;23.70;1.00
5138;DHT22;53959;53.626;11.410;2022-07-09T13:34:03;23.70;1.00
5138;DHT22;53959;53.626;11.410;2022-07-09T13:36:29;23.70;1.00
5138;DHT22;53959;53.626;11.410;2022-07-09T13:38:55;23.60;1.00
5138;DHT22;53959;53.626;11.410;2022-07-09T13:41:21;23.50;1.00
5138;DHT22;53959;53.626;11.410;2022-07-09T13:43:46;23.10;1.00
5138;DHT22;53959;53.626;11.410;2022-07-09T13:46:12;23.30;1.00
5138;DHT22;53959;53.626;11.410;2022-07-09T13:48:38;23.50;1.00
5138;DHT22;53959;53.626;11.410;2022-07-09T13:51:04;22.90;1.00
5138;DHT22;53959;53.626;11.410;2022-07-09T13:53:29;22.60;1.00
5138;DHT22;53959;53.626;11.410;2022-07-09T13:55:57;22.40;1.00
5138;DHT22;53959;53.626;11.410;2022-07-09T13:58:22;22.30;1.00
5138;DHT22;53959;53.626;11.410;2022-07-09T14:00:48;22.50;1.00
5138;DHT22;53959;53.626;11.410;2022-07-09T14:03:13;22.30;1.00
5138;DHT22;53959;53.626;11.410;2022-07-09T14:05:39;22.30;1.00
5138;DHT22;53959;53.626;11.410;2022-07-09T14:08:05;22.70;1.00
5138;DHT22;53959;53.626;11.410;2022-07-09T14:10:32;22.60;1.00
5138;DHT22;53959;53.626;11.410;2022-07-09T14:12:58;22.20;1.00
5138;DHT22;53959;53.626;11.410;2022-07-09T14:15:24;22.30;1.00
5138;DHT22;53959;53.626;11.410;2022-07-09T14:17:50;22.20;1.00
5138;DHT22;53959;53.626;11.410;2022-07-09T14:20:16;22.30;1.00
5138;DHT22;53959;53.626;11.410;2022-07-09T14:22:41;22.00;1.00
5138;DHT22;53959;53.626;11.410;2022-07-09T14:25:07;21.90;1.00
5138;DHT22;53959;53.626;11.410;2022-07-09T14:27:33;21.20;1.00
5138;DHT22;53959;53.626;11.410;2022-07-09T14:29:58;20.90;1.00
5138;DHT22;53959;53.626;11.410;2022-07-09T14:32:24;21.20;1.00
5138;DHT22;53959;53.626;11.410;2022-07-09T14:34:49;21.40;1.00
5138;DHT22;53959;53.626;11.410;2022-07-09T14:37:15;21.50;1.00
5138;DHT22;53959;53.626;11.410;2022-07-09T14:39:41;21.40;1.00
5138;DHT22;53959;53.626;11.410;2022-07-09T14:42:06;20.90;1.00
5138;DHT22;53959;53.626;11.410;2022-07-09T14:44:32;21.10;1.00
5138;DHT22;53959;53.626;11.410;2022-07-09T14:46:57;21.00;1.00
5138;DHT22;53959;53.626;11.410;2022-07-09T14:49:25;21.20;1.00
5138;DHT22;53959;53.626;11.410;2022-07-09T14:51:51;20.90;1.00
5138;DHT22;53959;53.626;11.410;2022-07-09T14:54:17;20.80;1.00
5138;DHT22;53959;53.626;11.410;2022-07-09T14:56:43;20.70;1.00
5138;DHT22;53959;53.626;11.410;2022-07-09T14:59:09;20.80;1.00
5138;DHT22;53959;53.626;11.410;2022-07-09T15:01:34;20.90;1.00
5138;DHT22;53959;53.626;11.410;2022-07-09T15:04:00;21.00;1.00
5138;DHT22;53959;53.626;11.410;2022-07-09T15:06:26;21.00;1.00
5138;DHT22;53959;53.626;11.410;2022-07-09T15:08:51;21.10;1.00
5138;DHT22;53959;53.626;11.410;2022-07-09T15:11:17;21.20;1.00
5138;DHT22;53959;53.626;11.410;2022-07-09T15:13:43;20.90;1.00
5138;DHT22;53959;53.626;11.410;2022-07-09T15:16:08;20.90;1.00
5138;DHT22;53959;53.626;11.410;2022-07-09T15:18:33;21.10;99.90
5138;DHT22;53959;53.626;11.410;2022-07-09T15:20:59;21.00;99.90
5138;DHT22;53959;53.626;11.410;2022-07-09T15:26:00;20.80;99.90
5138;DHT22;53959;53.626;11.410;2022-07-09T15:28:26;20.40;99.90
5138;DHT22;53959;53.626;11.410;2022-07-09T15:30:51;20.80;99.90
5138;DHT22;53959;53.626;11.410;2022-07-09T15:33:17;20.80;99.90
5138;DHT22;53959;53.626;11.410;2022-07-09T15:35:43;21.00;1.00
5138;DHT22;53959;53.626;11.410;2022-07-09T15:38:09;21.00;1.00
5138;DHT22;53959;53.626;11.410;2022-07-09T15:40:35;21.00;1.00